Time;durP1;ratioP1;P1;durP2;ratioP2;P2;SDS_P1;SDS_P2;PMS_P1;PMS_P2;Temp;Humidity;BMP_temperature;BMP_pressure;BME280_temperature;BME280_humidity;BME280_pressure;Samples;Min_cycle;Max_cycle;Signal;HPM_P1;HPM_P2
2021/06/21 00:02:11;;;;;;;10.82;4.65;;;;;;;18.92;78.70;100502.39;1645518;87;21033;-69
2021/06/21 00:04:38;;;;;;;12.25;5.87;;;;;;;18.93;78.55;100501.89;1646796;87;20927;-69
2021/06/21 00:07:05;;;;;;;10.55;4.80;;;;;;;18.94;78.35;100503.55;1646690;87;20951;-69
2021/06/21 00:09:33;;;;;;;11.18;5.42;;;;;;;18.93;78.33;100498.73;1648452;87;20966;-68
2021/06/21 00:12:01;;;;;;;17.30;4.62;;;;;;;18.94;78.41;100502.22;1647890;87;21037;-67
2021/06/21 00:14:28;;;;;;;17.00;6.25;;;;;;;18.93;78.49;100492.59;1646581;87;20941;-70
2021/06/21 00:16:55;;;;;;;15.60;5.25;;;;;;;18.91;78.48;100493.23;1656129;86;20901;-70
2021/06/21 00:19:22;;;;;;;12.13;4.40;;;;;;;18.87;78.64;100490.52;1666103;85;20921;-69
2021/06/21 00:21:49;;;;;;;17.92;5.80;;;;;;;18.79;78.89;100485.96;1665984;85;20913;-69
2021/06/21 00:24:20;;;;;;;16.30;5.85;;;;;;;18.74;79.13;100495.67;1666220;86;21160;-69
2021/06/21 00:26:48;;;;;;;14.18;5.15;;;;;;;18.73;79.33;100483.86;1665879;86;20913;-69
2021/06/21 00:29:15;;;;;;;10.25;5.85;;;;;;;18.74;79.44;100490.36;1665590;86;20917;-69
2021/06/21 00:31:44;;;;;;;9.63;5.62;;;;;;;18.75;79.49;100493.84;1665828;86;20965;-71
2021/06/21 00:34:11;;;;;;;11.78;5.67;;;;;;;18.75;79.63;100496.50;1666109;86;21109;-68
2021/06/21 00:36:37;;;;;;;11.28;5.67;;;;;;;18.70;79.66;100482.34;1665978;86;21137;-70
2021/06/21 00:39:06;;;;;;;10.68;6.12;;;;;;;18.66;79.75;100487.60;1666035;86;21004;-69
2021/06/21 00:41:34;;;;;;;9.58;4.97;;;;;;;18.66;79.81;100489.43;1665850;86;21000;-70
2021/06/21 00:44:01;;;;;;;8.90;5.45;;;;;;;18.67;79.71;100498.55;1666088;86;21016;-70
2021/06/21 00:46:28;;;;;;;7.92;4.60;;;;;;;18.68;79.51;100495.44;1665869;86;20949;-70
2021/06/21 00:48:55;;;;;;;12.90;5.72;;;;;;;18.69;79.38;100492.61;1665934;86;21172;-70
2021/06/21 00:51:23;;;;;;;10.98;6.65;;;;;;;18.70;79.42;100496.09;1665803;86;21011;-70
2021/06/21 00:53:50;;;;;;;12.13;5.80;;;;;;;18.69;79.62;100501.08;1665851;85;21715;-70
2021/06/21 00:56:17;;;;;;;12.15;4.75;;;;;;;18.67;79.69;100503.04;1645052;86;21404;-70
2021/06/21 00:58:44;;;;;;;8.50;4.60;;;;;;;18.66;79.77;100506.20;1665879;85;21004;-69
2021/06/21 01:01:10;;;;;;;13.72;5.40;;;;;;;18.64;79.72;100501.02;1644987;86;21136;-69
2021/06/21 01:03:37;;;;;;;8.93;4.55;;;;;;;18.61;79.74;100503.98;1665855;86;20913;-69
2021/06/21 01:06:06;;;;;;;12.25;4.40;;;;;;;18.59;79.79;100505.95;1665933;85;20904;-69
2021/06/21 01:08:32;;;;;;;10.38;5.17;;;;;;;18.54;79.98;100504.70;1665980;86;21070;-69
2021/06/21 01:10:59;;;;;;;13.62;4.58;;;;;;;18.51;80.23;100507.66;1666271;86;21402;-69
2021/06/21 01:13:44;;;;;;;6.12;4.50;;;;;;;18.50;80.29;100508.63;1666023;86;21151;-70
2021/06/21 01:18:35;;;;;;;13.50;4.40;;;;;;;18.56;80.17;100504.89;1816416;79;22597;-69
2021/06/21 01:21:41;;;;;;;11.48;5.05;;;;;;;18.51;80.11;100505.00;1759106;80;20947;-68
2021/06/21 01:24:53;;;;;;;10.68;4.75;;;;;;;18.44;80.35;100498.94;1789501;80;21167;-69
2021/06/21 01:27:53;;;;;;;11.88;5.08;;;;;;;18.42;80.66;100503.56;1789362;80;20880;-68
2021/06/21 01:30:44;;;;;;;9.13;4.67;;;;;;;18.43;80.57;100507.91;1789421;80;20928;-67
2021/06/21 01:33:11;;;;;;;11.35;5.45;;;;;;;18.43;80.54;100509.23;1789781;80;21473;-68
2021/06/21 01:35:45;;;;;;;12.58;4.78;;;;;;;18.43;80.55;100512.36;1758901;80;21010;-68
2021/06/21 01:38:15;;;;;;;9.78;4.50;;;;;;;18.43;81.06;100507.91;1789338;79;22015;-68
2021/06/21 01:40:45;;;;;;;9.45;4.33;;;;;;;18.41;80.89;100509.87;1759030;80;20911;-68
2021/06/21 01:43:16;;;;;;;9.15;5.10;;;;;;;18.40;80.96;100510.83;1789840;79;20959;-68
2021/06/21 01:45:43;;;;;;;9.43;4.15;;;;;;;18.38;80.87;100505.33;1789482;80;20895;-67
2021/06/21 01:48:11;;;;;;;7.65;4.72;;;;;;;18.38;80.77;100506.16;1789633;80;20987;-67
2021/06/21 01:50:38;;;;;;;10.95;3.72;;;;;;;18.38;80.58;100503.50;1789599;80;21134;-68
2021/06/21 01:53:14;;;;;;;11.95;4.92;;;;;;;18.39;80.44;100501.20;1789430;80;20868;-68
2021/06/21 01:55:52;;;;;;;10.28;5.08;;;;;;;18.40;80.43;100502.04;1789133;80;21377;-69
2021/06/21 01:58:19;;;;;;;8.23;4.62;;;;;;;18.40;80.48;100504.69;1759509;80;20979;-68
2021/06/21 02:00:46;;;;;;;8.80;4.33;;;;;;;18.38;80.56;100499.52;1759069;79;20821;-68
2021/06/21 02:03:13;;;;;;;6.42;4.62;;;;;;;18.37;80.68;100505.00;1789505;80;21961;-68
2021/06/21 02:05:41;;;;;;;8.05;4.28;;;;;;;18.35;80.67;100507.78;1789623;80;20919;-68
2021/06/21 02:08:08;;;;;;;8.98;4.05;;;;;;;18.36;80.66;100505.50;1789361;80;21500;-68
2021/06/21 02:10:39;;;;;;;9.13;4.92;;;;;;;18.37;80.67;100515.62;1759428;80;20884;-68
2021/06/21 02:13:05;;;;;;;10.55;4.75;;;;;;;18.37;80.65;100519.59;1789539;79;21330;-68
2021/06/21 02:15:33;;;;;;;14.85;5.70;;;;;;;18.39;80.82;100517.14;1789447;79;21495;-68
2021/06/21 02:18:00;;;;;;;11.00;5.30;;;;;;;18.38;80.84;100526.56;1780448;80;20916;-68
2021/06/21 02:20:27;;;;;;;13.35;5.85;;;;;;;18.38;81.12;100522.59;1775872;80;20904;-68
2021/06/21 02:22:53;;;;;;;11.80;5.33;;;;;;;18.38;81.18;100534.03;1775909;80;20860;-68
2021/06/21 02:25:20;;;;;;;11.70;4.72;;;;;;;18.41;81.10;100529.78;1775973;80;20908;-68
2021/06/21 02:27:47;;;;;;;11.12;5.30;;;;;;;18.44;80.97;100526.00;1775895;80;21140;-68
2021/06/21 02:30:15;;;;;;;11.08;4.95;;;;;;;18.46;81.09;100525.36;1775158;80;20872;-68
2021/06/21 02:32:44;;;;;;;12.58;5.30;;;;;;;18.46;81.16;100526.69;1775672;80;20889;-68
2021/06/21 02:35:12;;;;;;;10.08;5.03;;;;;;;18.50;81.28;100531.20;1775263;80;20869;-67
2021/06/21 02:37:39;;;;;;;10.40;5.22;;;;;;;18.52;81.45;100530.56;1775360;80;20896;-67
2021/06/21 02:40:09;;;;;;;11.55;6.92;;;;;;;18.56;81.48;100530.62;1775308;80;21787;-68
2021/06/21 02:42:36;;;;;;;8.85;5.17;;;;;;;18.63;81.45;100539.20;1775449;80;21319;-68
2021/06/21 02:45:05;;;;;;;14.43;4.75;;;;;;;18.70;81.27;100537.27;1775332;80;20853;-68
2021/06/21 02:47:33;;;;;;;6.92;5.20;;;;;;;18.75;81.02;100538.52;1775264;80;20921;-68
2021/06/21 02:50:00;;;;;;;10.45;4.80;;;;;;;18.79;80.97;100542.59;1775319;80;20928;-68
2021/06/21 02:53:04;;;;;;;15.03;4.92;;;;;;;18.83;80.88;100541.78;1753728;80;21830;-68
2021/06/21 02:56:20;;;;;;;9.58;4.42;;;;;;;18.90;80.71;100548.20;1775421;80;20849;-69
2021/06/21 02:58:47;;;;;;;14.63;4.58;;;;;;;18.99;80.57;100547.81;1775851;80;27978;-70
2021/06/21 03:01:15;;;;;;;12.58;5.75;;;;;;;19.07;80.38;100542.56;1775066;80;20932;-69
2021/06/21 03:03:47;;;;;;;9.65;5.08;;;;;;;19.14;80.11;100546.79;1775253;80;20853;-69
2021/06/21 03:06:15;;;;;;;10.93;5.30;;;;;;;19.19;79.91;100548.03;1775651;80;21135;-69
2021/06/21 03:08:43;;;;;;;8.08;4.37;;;;;;;19.25;79.68;100546.11;1753848;80;20849;-69
2021/06/21 03:11:10;;;;;;;8.73;5.15;;;;;;;19.31;79.62;100539.84;1753327;80;20960;-69
2021/06/21 03:13:37;;;;;;;10.48;4.95;;;;;;;19.38;79.49;100533.75;1775612;80;21340;-68
2021/06/21 03:16:05;;;;;;;9.18;5.45;;;;;;;19.45;79.29;100529.52;1775251;80;20888;-69
2021/06/21 03:18:32;;;;;;;7.87;5.87;;;;;;;19.51;79.16;100525.90;1774928;80;21635;-69
2021/06/21 03:20:59;;;;;;;14.13;5.85;;;;;;;19.58;79.11;100526.95;1753634;80;20893;-68
2021/06/21 03:23:28;;;;;;;16.02;5.87;;;;;;;19.63;78.92;100527.32;1775806;80;20892;-68
2021/06/21 03:25:58;;;;;;;11.73;5.97;;;;;;;19.69;78.79;100529.41;1775164;80;20897;-70
2021/06/21 03:28:24;;;;;;;13.35;4.90;;;;;;;19.75;78.69;100525.31;1775510;80;20884;-69
2021/06/21 03:30:55;;;;;;;9.35;5.03;;;;;;;19.81;78.61;100527.33;1753595;80;21149;-68
2021/06/21 03:33:22;;;;;;;7.03;5.17;;;;;;;19.85;78.52;100533.55;1775548;80;21379;-70
2021/06/21 03:35:50;;;;;;;9.33;5.20;;;;;;;19.91;78.36;100544.05;1775225;80;20935;-69
2021/06/21 03:38:23;;;;;;;13.18;5.37;;;;;;;19.96;78.29;100537.77;1776811;80;20881;-69
2021/06/21 03:40:52;;;;;;;17.40;5.62;;;;;;;20.02;78.19;100537.66;1778367;80;20869;-69
2021/06/21 03:43:21;;;;;;;10.03;4.97;;;;;;;20.09;78.02;100538.70;1777746;80;21465;-68
2021/06/21 03:45:50;;;;;;;7.12;5.12;;;;;;;20.17;77.97;100537.93;1775566;80;20964;-69
2021/06/21 03:48:17;;;;;;;14.55;6.10;;;;;;;20.24;77.95;100542.96;1775273;80;20900;-69
2021/06/21 03:50:44;;;;;;;11.15;5.60;;;;;;;20.32;77.88;100546.16;1775433;80;21368;-69
2021/06/21 03:53:11;;;;;;;12.50;5.95;;;;;;;20.39;77.74;100546.72;1775445;80;20979;-69
2021/06/21 03:55:38;;;;;;;8.23;5.92;;;;;;;20.50;77.55;100542.95;1775224;80;21624;-70
2021/06/21 03:58:05;;;;;;;14.47;7.40;;;;;;;20.59;77.33;100549.19;1775118;80;20920;-68
2021/06/21 04:00:34;;;;;;;19.37;6.15;;;;;;;20.68;77.21;100547.73;1774923;80;21343;-69
2021/06/21 04:03:02;;;;;;;18.27;6.45;;;;;;;20.81;77.16;100550.43;1775223;80;20857;-68
2021/06/21 04:05:29;;;;;;;18.00;6.25;;;;;;;20.94;77.04;100555.32;1775867;80;20981;-69
2021/06/21 04:07:57;;;;;;;66.37;11.97;;;;;;;21.11;76.46;100556.55;1775266;80;21304;-69
2021/06/21 04:10:26;;;;;;;64.65;11.93;;;;;;;21.34;74.27;100550.59;1775450;80;20916;-69
2021/06/21 04:12:53;;;;;;;63.38;10.13;;;;;;;21.68;72.33;100549.17;1775274;80;21390;-69
2021/06/21 04:15:30;;;;;;;61.33;10.18;;;;;;;22.08;70.59;100552.84;1774932;80;20983;-69
2021/06/21 04:17:58;;;;;;;72.75;12.18;;;;;;;22.50;69.74;100549.59;1778007;80;21366;-71
2021/06/21 04:20:26;;;;;;;74.35;13.13;;;;;;;22.95;67.52;100556.95;1783657;80;21154;-69
2021/06/21 04:22:53;;;;;;;87.95;13.03;;;;;;;23.37;65.69;100568.30;1783723;80;20872;-69
2021/06/21 04:25:20;;;;;;;81.72;12.82;;;;;;;23.74;64.60;100566.17;1783723;80;20868;-68
2021/06/21 04:27:47;;;;;;;84.70;13.35;;;;;;;24.10;63.09;100566.06;1783764;80;20935;-68
2021/06/21 04:30:17;;;;;;;96.20;15.10;;;;;;;24.45;61.73;100562.37;1783459;80;20916;-69
2021/06/21 04:32:44;;;;;;;89.97;14.45;;;;;;;24.74;60.83;100566.92;1783673;80;21807;-69
2021/06/21 04:35:14;;;;;;;80.65;13.72;;;;;;;25.02;59.44;100565.23;1783628;80;20936;-70
2021/06/21 04:37:41;;;;;;;89.67;12.90;;;;;;;25.31;59.64;100567.55;1783707;80;20969;-68
2021/06/21 04:40:10;;;;;;;82.90;16.15;;;;;;;25.64;57.74;100569.23;1783779;80;20880;-70
2021/06/21 04:42:37;;;;;;;82.62;15.00;;;;;;;25.87;56.98;100567.36;1783824;80;20884;-70
2021/06/21 04:45:06;;;;;;;89.58;14.28;;;;;;;26.10;56.22;100573.39;1783886;80;21083;-70
2021/06/21 04:47:32;;;;;;;83.45;14.65;;;;;;;26.38;55.87;100574.70;1783609;80;20959;-69
2021/06/21 04:50:04;;;;;;;94.65;16.52;;;;;;;26.63;55.43;100577.77;1783658;80;20928;-71
2021/06/21 04:52:33;;;;;;;93.80;15.70;;;;;;;26.91;54.42;100571.50;1783886;80;20931;-70
2021/06/21 04:55:01;;;;;;;93.60;15.00;;;;;;;27.18;53.28;100572.95;1783718;80;20971;-69
2021/06/21 04:57:30;;;;;;;100.18;15.70;;;;;;;27.41;53.64;100576.16;1783685;80;21166;-69
2021/06/21 04:59:56;;;;;;;99.85;16.57;;;;;;;27.70;52.75;100574.10;1783775;80;20876;-71
2021/06/21 05:02:23;;;;;;;100.00;16.15;;;;;;;27.97;51.62;100568.75;1784481;80;20924;-69
2021/06/21 05:04:51;;;;;;;100.10;16.87;;;;;;;28.19;50.42;100573.41;1784074;80;20920;-69
2021/06/21 05:07:19;;;;;;;110.72;17.32;;;;;;;28.34;50.05;100571.84;1784107;80;21018;-71
2021/06/21 05:09:48;;;;;;;107.85;20.92;;;;;;;28.48;50.17;100570.80;1783666;80;21196;-70
2021/06/21 05:12:15;;;;;;;116.75;20.55;;;;;;;28.67;48.63;100578.01;1783933;80;20884;-70
2021/06/21 05:14:44;;;;;;;138.77;21.10;;;;;;;28.76;48.60;100577.79;1783778;80;20972;-71
2021/06/21 05:17:11;;;;;;;120.30;20.65;;;;;;;28.86;48.13;100569.55;1784126;80;21561;-71
2021/06/21 05:19:38;;;;;;;134.75;24.50;;;;;;;28.94;48.06;100570.64;1783470;80;20964;-71
2021/06/21 05:22:06;;;;;;;133.03;25.55;;;;;;;29.08;47.54;100566.06;1783715;80;21819;-71
2021/06/21 05:24:33;;;;;;;155.52;26.25;;;;;;;29.19;47.68;100568.57;1783324;80;20928;-71
2021/06/21 05:26:59;;;;;;;147.87;26.25;;;;;;;29.28;46.29;100566.45;1783883;80;20932;-70
2021/06/21 05:29:26;;;;;;;168.65;28.70;;;;;;;29.34;46.45;100573.16;1783479;80;20920;-73
2021/06/21 05:31:53;;;;;;;156.43;27.58;;;;;;;29.49;46.37;100575.58;1783760;80;21338;-70
2021/06/21 05:34:20;;;;;;;152.25;29.18;;;;;;;29.65;45.75;100580.97;1783484;80;21128;-78
2021/06/21 05:36:47;;;;;;;163.75;29.30;;;;;;;29.81;45.55;100580.98;1783735;80;20916;-77
2021/06/21 05:39:14;;;;;;;174.60;28.95;;;;;;;29.95;44.89;100585.78;1783466;80;20876;-77
2021/06/21 05:41:41;;;;;;;167.32;29.35;;;;;;;30.03;44.49;100590.89;1783789;80;20876;-78
2021/06/21 05:44:08;;;;;;;185.67;30.60;;;;;;;30.01;44.90;100582.70;1783526;80;20959;-78
2021/06/21 05:46:36;;;;;;;170.38;29.27;;;;;;;30.07;44.55;100586.70;1783338;80;22089;-80
2021/06/21 05:49:03;;;;;;;181.60;30.65;;;;;;;30.19;44.03;100581.91;1783227;80;20935;-79
2021/06/21 05:51:30;;;;;;;182.45;29.82;;;;;;;30.35;43.78;100592.21;1783532;80;21449;-79
2021/06/21 05:53:57;;;;;;;151.85;28.45;;;;;;;30.51;43.66;100588.91;1783294;80;21295;-78
2021/06/21 05:56:25;;;;;;;168.95;29.72;;;;;;;30.67;43.58;100590.72;1783417;80;20924;-79
2021/06/21 05:58:52;;;;;;;179.55;34.65;;;;;;;30.87;43.83;100596.76;1783052;80;21617;-79
2021/06/21 06:01:21;;;;;;;195.60;34.10;;;;;;;31.10;43.28;100596.04;1783270;80;20980;-77
2021/06/21 06:03:48;;;;;;;187.18;33.95;;;;;;;31.29;41.66;100605.51;1753676;80;21030;-79
2021/06/21 06:06:15;;;;;;;180.25;32.05;;;;;;;31.35;42.37;100609.48;1783643;80;20861;-80
2021/06/21 06:08:44;;;;;;;179.35;34.63;;;;;;;31.42;41.61;100605.36;1783622;80;20920;-81
2021/06/21 06:11:11;;;;;;;166.03;33.00;;;;;;;31.52;43.08;100609.67;1783757;80;21136;-84
2021/06/21 06:13:38;;;;;;;199.20;36.30;;;;;;;31.67;41.77;100600.30;1783824;80;20911;-82
2021/06/21 06:16:06;;;;;;;198.68;36.10;;;;;;;31.75;40.50;100602.14;1783283;80;20920;-80
2021/06/21 06:18:35;;;;;;;206.30;34.60;;;;;;;31.75;40.74;100602.14;1783695;80;20889;-80
2021/06/21 06:21:02;;;;;;;188.82;34.20;;;;;;;31.84;40.44;100598.56;1783952;80;21410;-76
2021/06/21 06:23:29;;;;;;;172.87;33.75;;;;;;;31.99;40.34;100601.69;1784220;80;21097;-78
2021/06/21 06:25:56;;;;;;;207.90;37.45;;;;;;;32.14;40.45;100601.74;1783845;80;21334;-78
2021/06/21 06:28:23;;;;;;;200.22;34.25;;;;;;;32.33;39.56;100599.21;1783865;80;20924;-77
2021/06/21 06:30:50;;;;;;;176.82;35.78;;;;;;;32.50;39.58;100597.94;1783754;80;20987;-79
2021/06/21 06:33:17;;;;;;;182.55;36.05;;;;;;;32.65;38.96;100598.03;1783544;80;20845;-78
2021/06/21 06:35:45;;;;;;;179.68;33.05;;;;;;;32.76;40.00;100591.20;1783804;80;21152;-77
2021/06/21 06:38:13;;;;;;;204.50;36.90;;;;;;;32.97;39.24;100600.61;1784118;80;21560;-78
2021/06/21 06:40:40;;;;;;;200.07;37.53;;;;;;;33.13;37.71;100599.55;1783630;80;20935;-78
2021/06/21 06:43:07;;;;;;;195.47;34.70;;;;;;;33.14;37.55;100609.38;1784193;80;20888;-76
2021/06/21 06:45:34;;;;;;;181.72;35.08;;;;;;;33.10;37.53;100608.20;1783810;80;20913;-75
2021/06/21 06:48:02;;;;;;;159.82;33.83;;;;;;;33.08;37.97;100603.00;1783924;80;21518;-75
2021/06/21 06:50:29;;;;;;;176.35;34.18;;;;;;;33.23;38.65;100607.91;1783692;80;20947;-75
2021/06/21 06:52:57;;;;;;;206.25;38.08;;;;;;;33.38;38.36;100601.95;1784197;79;20991;-75
2021/06/21 06:58:11;;;;;;;186.92;35.95;;;;;;;33.69;37.04;100584.84;1783825;80;20936;-75
2021/06/21 07:00:38;;;;;;;175.53;36.60;;;;;;;33.93;37.83;100593.64;1784068;80;21148;-75
2021/06/21 07:03:07;;;;;;;206.43;34.75;;;;;;;34.09;36.46;100593.37;1783847;80;20908;-74
2021/06/21 07:05:35;;;;;;;207.12;37.95;;;;;;;34.18;35.52;100594.62;1786741;80;20972;-73
2021/06/21 07:08:02;;;;;;;199.45;37.08;;;;;;;34.21;35.58;100599.02;1787200;80;20955;-72
2021/06/21 07:10:29;;;;;;;184.10;38.53;;;;;;;34.22;35.44;100606.67;1787426;80;20971;-73
2021/06/21 07:12:56;;;;;;;174.57;33.88;;;;;;;34.22;35.80;100603.41;1785891;80;21413;-73
2021/06/21 07:15:24;;;;;;;181.15;35.08;;;;;;;34.26;35.69;100600.47;1785836;80;20873;-72
2021/06/21 07:17:52;;;;;;;185.97;38.70;;;;;;;34.28;35.44;100611.64;1784181;80;20975;-74
2021/06/21 07:20:19;;;;;;;189.28;35.78;;;;;;;34.19;34.61;100607.15;1783618;80;21326;-72
2021/06/21 07:22:46;;;;;;;179.25;32.25;;;;;;;34.12;35.33;100607.86;1783729;80;20857;-75
2021/06/21 07:25:13;;;;;;;183.32;31.82;;;;;;;34.09;35.00;100603.72;1784266;80;21136;-72
2021/06/21 07:27:40;;;;;;;195.80;34.58;;;;;;;34.12;34.97;100602.42;1783744;80;20912;-72
2021/06/21 07:30:09;;;;;;;197.02;35.78;;;;;;;34.15;34.97;100603.27;1784519;80;20852;-73
2021/06/21 07:32:37;;;;;;;185.67;34.10;;;;;;;34.18;34.70;100604.97;1784277;80;20916;-72
2021/06/21 07:35:06;;;;;;;178.05;33.65;;;;;;;34.22;35.10;100608.84;1785384;80;20912;-75
2021/06/21 07:37:33;;;;;;;176.78;33.55;;;;;;;34.21;35.58;100607.19;1784121;80;20909;-74
2021/06/21 07:40:00;;;;;;;172.47;37.25;;;;;;;34.28;35.14;100612.45;1783718;80;21536;-74
2021/06/21 07:42:27;;;;;;;185.00;33.73;;;;;;;34.36;34.82;100601.14;1783864;79;21447;-73
2021/06/21 07:44:55;;;;;;;178.15;34.65;;;;;;;34.41;34.72;100609.38;1783814;80;20889;-74
2021/06/21 07:47:22;;;;;;;178.07;37.23;;;;;;;34.45;35.45;100606.45;1783798;80;20928;-73
2021/06/21 07:49:49;;;;;;;193.37;39.58;;;;;;;34.56;35.56;100615.58;1783951;80;21081;-73
2021/06/21 07:52:16;;;;;;;181.75;40.23;;;;;;;34.70;35.78;100615.25;1783749;80;20837;-74
2021/06/21 07:54:43;;;;;;;187.65;38.85;;;;;;;34.82;35.03;100614.59;1784364;80;20939;-74
2021/06/21 07:57:09;;;;;;;175.82;31.90;;;;;;;34.93;34.07;100616.37;1783728;80;20877;-72
2021/06/21 07:59:36;;;;;;;171.13;31.42;;;;;;;34.95;33.89;100625.11;1783659;80;20915;-70
2021/06/21 08:02:04;;;;;;;164.07;36.85;;;;;;;34.90;34.29;100618.77;1783771;80;21652;-70
2021/06/21 08:04:31;;;;;;;167.37;35.92;;;;;;;34.90;34.01;100617.41;1783618;80;20927;-73
2021/06/21 08:06:58;;;;;;;160.43;32.98;;;;;;;34.92;34.95;100617.97;1783773;80;21847;-74
2021/06/21 08:09:26;;;;;;;175.05;33.18;;;;;;;35.00;34.26;100613.45;1783884;80;20920;-72
2021/06/21 08:11:56;;;;;;;172.65;31.10;;;;;;;34.96;35.12;100615.03;1783751;80;21399;-79
2021/06/21 08:14:23;;;;;;;161.37;32.98;;;;;;;34.98;34.23;100621.05;1716869;78;21212;-83
2021/06/21 08:16:51;;;;;;;161.57;27.93;;;;;;;35.02;33.67;100614.02;1719408;83;20897;-85
2021/06/21 08:19:18;;;;;;;159.67;28.92;;;;;;;35.05;34.07;100608.05;1719460;83;20988;-79
2021/06/21 08:21:45;;;;;;;150.10;29.48;;;;;;;35.05;33.33;100607.50;1719299;83;20873;-79
2021/06/21 08:24:12;;;;;;;180.85;32.55;;;;;;;35.00;33.41;100603.36;1719356;83;20920;-80
2021/06/21 08:26:40;;;;;;;153.82;28.92;;;;;;;34.89;33.60;100600.23;1719219;83;21166;-80
2021/06/21 08:29:08;;;;;;;153.42;29.85;;;;;;;34.90;34.80;100607.86;1719309;83;20971;-79
2021/06/21 08:31:35;;;;;;;156.30;32.30;;;;;;;35.00;34.30;100599.27;1719378;83;20919;-80
2021/06/21 08:34:02;;;;;;;146.37;30.20;;;;;;;35.11;34.06;100613.00;1719220;83;20853;-76
2021/06/21 08:36:31;;;;;;;154.35;30.37;;;;;;;35.18;34.41;100601.41;1719185;83;20980;-76
2021/06/21 08:38:58;;;;;;;188.42;36.95;;;;;;;35.23;34.06;100613.17;1719165;83;21342;-75
2021/06/21 08:41:25;;;;;;;154.97;34.15;;;;;;;35.20;33.14;100610.98;1719137;83;20877;-75
2021/06/21 08:43:52;;;;;;;176.47;32.58;;;;;;;35.21;33.66;100624.06;1719290;83;20952;-77
2021/06/21 08:46:19;;;;;;;135.57;29.98;;;;;;;35.25;33.56;100620.56;1719147;83;20948;-77
2021/06/21 08:48:47;;;;;;;181.02;33.35;;;;;;;35.36;34.24;100625.59;1718896;83;20920;-77
2021/06/21 08:51:14;;;;;;;143.20;32.20;;;;;;;35.46;33.46;100616.67;1719179;83;21148;-77
2021/06/21 08:53:41;;;;;;;126.33;32.23;;;;;;;35.60;34.33;100619.28;1719051;83;20888;-77
2021/06/21 08:56:10;;;;;;;154.95;33.63;;;;;;;35.73;34.18;100625.41;1719407;83;21452;-75
2021/06/21 08:58:37;;;;;;;129.87;28.30;;;;;;;35.85;33.97;100630.98;1719374;83;20971;-75
2021/06/21 09:01:04;;;;;;;152.17;29.42;;;;;;;35.89;33.20;100621.74;1719305;83;20896;-75
2021/06/21 09:03:33;;;;;;;138.97;27.93;;;;;;;35.96;32.79;100625.62;1719358;83;21161;-78
2021/06/21 09:06:01;;;;;;;143.90;27.25;;;;;;;35.94;33.52;100626.42;1719138;83;20948;-77
2021/06/21 09:08:30;;;;;;;148.68;26.12;;;;;;;35.94;33.40;100623.14;1719389;83;20909;-77
2021/06/21 09:10:57;;;;;;;153.80;30.30;;;;;;;35.93;34.02;100630.22;1690805;83;21011;-77
2021/06/21 09:13:27;;;;;;;154.30;32.00;;;;;;;35.98;33.12;100628.91;1719150;83;20928;-77
2021/06/21 09:15:56;;;;;;;164.03;29.27;;;;;;;35.94;32.11;100627.78;1698583;83;21190;-77
2021/06/21 09:18:37;;;;;;;163.05;31.23;;;;;;;35.85;32.39;100624.16;1726576;83;20920;-77
2021/06/21 09:21:32;;;;;;;140.60;26.07;;;;;;;35.77;32.43;100624.63;1726751;83;20936;-76
2021/06/21 09:24:01;;;;;;;159.97;29.50;;;;;;;35.62;33.47;100633.52;1726657;83;20947;-77
2021/06/21 09:26:31;;;;;;;141.75;29.98;;;;;;;35.44;32.66;100625.13;1726811;83;20928;-75
2021/06/21 09:29:00;;;;;;;143.82;28.85;;;;;;;35.29;33.27;100622.25;1726578;83;21968;-76
2021/06/21 09:31:27;;;;;;;145.02;28.65;;;;;;;35.27;33.55;100627.95;1726500;83;21520;-77
2021/06/21 09:34:10;;;;;;;144.60;28.62;;;;;;;35.26;33.42;100623.59;1726656;83;20884;-77
2021/06/21 09:36:36;;;;;;;128.90;23.62;;;;;;;35.31;34.31;100624.19;1701293;83;21384;-77
2021/06/21 09:39:27;;;;;;;155.52;27.42;;;;;;;35.35;34.30;100619.86;1726931;83;20861;-77
2021/06/21 09:42:23;;;;;;;133.32;28.47;;;;;;;35.36;33.22;100622.05;1726740;83;21153;-78
2021/06/21 09:44:55;;;;;;;151.57;29.02;;;;;;;35.28;33.23;100625.52;1726762;83;20983;-77
2021/06/21 09:47:30;;;;;;;161.30;26.97;;;;;;;35.35;33.71;100634.87;1727039;83;21368;-78
2021/06/21 09:50:18;;;;;;;152.97;27.35;;;;;;;35.35;32.83;100634.02;1726735;83;21507;-76
2021/06/21 09:52:55;;;;;;;130.95;28.15;;;;;;;35.30;33.93;100629.34;1726845;83;21334;-77
2021/06/21 09:55:34;;;;;;;139.22;24.70;;;;;;;35.46;34.24;100622.98;1726934;83;21409;-77
2021/06/21 09:58:18;;;;;;;143.05;28.20;;;;;;;35.58;32.92;100623.35;1726830;83;20861;-77
2021/06/21 10:00:51;;;;;;;142.10;24.55;;;;;;;35.62;32.17;100629.43;1727044;83;21353;-77
2021/06/21 10:03:21;;;;;;;131.05;26.93;;;;;;;35.61;32.70;100627.73;1726877;83;20915;-78
2021/06/21 10:06:09;;;;;;;136.37;27.45;;;;;;;35.59;32.26;100629.08;1726282;83;20987;-78
2021/06/21 10:08:48;;;;;;;124.40;22.00;;;;;;;35.58;32.75;100623.35;1726822;83;21832;-78
2021/06/21 10:11:32;;;;;;;140.62;23.70;;;;;;;35.66;32.27;100635.17;1727038;83;21389;-78
2021/06/21 10:14:05;;;;;;;124.53;21.87;;;;;;;35.61;31.76;100622.28;1726097;83;20924;-77
2021/06/21 10:16:32;;;;;;;124.45;23.60;;;;;;;35.51;31.91;100623.56;1720992;83;20857;-79
2021/06/21 10:18:59;;;;;;;133.32;24.05;;;;;;;35.50;32.18;100618.62;1721140;83;20940;-76
2021/06/21 10:21:27;;;;;;;110.70;21.48;;;;;;;35.53;32.08;100613.73;1720791;83;21156;-78
2021/06/21 10:23:55;;;;;;;116.93;21.90;;;;;;;35.44;31.75;100618.83;1720637;83;20912;-77
2021/06/21 10:26:22;;;;;;;112.45;18.85;;;;;;;35.45;32.62;100621.86;1720447;83;21393;-77
2021/06/21 10:28:50;;;;;;;111.55;21.70;;;;;;;35.49;32.75;100612.09;1720628;83;21008;-78
2021/06/21 10:31:21;;;;;;;117.17;20.70;;;;;;;35.50;32.13;100606.34;1720638;83;20991;-77
2021/06/21 10:33:48;;;;;;;129.72;23.30;;;;;;;35.55;32.45;100603.39;1720640;83;21135;-78
2021/06/21 10:36:15;;;;;;;123.25;19.50;;;;;;;35.66;32.29;100607.89;1698096;83;20865;-78
2021/06/21 10:38:42;;;;;;;106.83;20.43;;;;;;;35.82;32.47;100606.95;1720520;83;20857;-78
2021/06/21 10:41:10;;;;;;;106.97;21.15;;;;;;;35.89;31.07;100606.19;1720557;83;20920;-78
2021/06/21 10:43:53;;;;;;;100.72;20.50;;;;;;;35.86;31.37;100597.68;1720563;83;21023;-78
2021/06/21 10:46:25;;;;;;;116.00;20.90;;;;;;;35.89;32.61;100596.63;1720194;83;21330;-77
2021/06/21 10:49:06;;;;;;;99.28;20.12;;;;;;;35.97;31.46;100599.95;1720531;83;20940;-77
2021/06/21 10:51:36;;;;;;;116.03;20.15;;;;;;;35.98;31.12;100598.33;1720559;83;20944;-78
2021/06/21 10:54:06;;;;;;;93.47;19.20;;;;;;;35.91;31.21;100604.56;1720506;83;20909;-78
2021/06/21 10:56:51;;;;;;;103.22;17.82;;;;;;;35.98;30.97;100601.61;1720651;83;21322;-77
2021/06/21 10:59:24;;;;;;;93.58;16.35;;;;;;;35.95;30.58;100608.39;1720604;83;21210;-77
2021/06/21 11:02:00;;;;;;;81.67;15.05;;;;;;;35.85;30.62;100606.42;1720580;83;28619;-78
2021/06/21 11:04:41;;;;;;;78.87;15.83;;;;;;;35.79;30.74;100613.45;1720692;83;20975;-77
2021/06/21 11:07:22;;;;;;;81.17;15.45;;;;;;;35.74;29.92;100614.24;1720706;83;20975;-75
2021/06/21 11:09:55;;;;;;;80.17;14.78;;;;;;;35.64;30.73;100613.63;1720502;83;20959;-77
2021/06/21 11:12:33;;;;;;;80.28;13.40;;;;;;;35.64;31.81;100610.89;1720894;83;21442;-75
2021/06/21 11:15:09;;;;;;;81.10;16.27;;;;;;;35.65;30.88;100605.70;1722981;83;21461;-75
2021/06/21 11:17:55;;;;;;;77.08;14.87;;;;;;;35.62;30.28;100607.60;1726458;83;20987;-77
2021/06/21 11:20:44;;;;;;;81.30;16.40;;;;;;;35.42;29.91;100595.93;1726633;83;20947;-76
2021/06/21 11:23:27;;;;;;;79.90;16.23;;;;;;;35.26;30.29;100603.66;1727154;83;21511;-75
2021/06/21 11:25:53;;;;;;;88.58;14.47;;;;;;;35.02;30.59;100595.75;1714210;83;21157;-79
2021/06/21 11:28:41;;;;;;;67.87;13.35;;;;;;;34.79;30.84;100605.00;1715195;83;21422;-79